createdAt,value
2022-08-30T00:04:21.575Z,16.52
2022-08-30T00:09:21.824Z,16.36
2022-08-30T00:14:24.905Z,16.19
2022-08-30T00:19:24.162Z,16.36
2022-08-30T00:24:26.393Z,16.36
2022-08-30T00:29:25.757Z,16.52
2022-08-30T00:34:27.083Z,16.36
2022-08-30T00:39:28.396Z,16.36
2022-08-30T00:44:29.659Z,16.19
2022-08-30T00:49:30.877Z,15.52
2022-08-30T00:54:32.119Z,15.52
2022-08-30T00:59:33.535Z,15.52
2022-08-30T01:04:35.153Z,15.36
2022-08-30T01:09:34.382Z,15.36
2022-08-30T01:14:36.911Z,15.36
2022-08-30T01:19:35.875Z,15.36
2022-08-30T01:24:37.176Z,15.52
2022-08-30T01:29:38.395Z,15.52
2022-08-30T01:34:39.547Z,15.52
2022-08-30T01:39:40.781Z,15.52
2022-08-30T01:44:42.400Z,15.36
2022-08-30T01:49:41.648Z,15.52
2022-08-30T01:54:42.879Z,15.36
2022-08-30T01:59:44.108Z,15.52
2022-08-30T02:04:45.657Z,15.52
2022-08-30T02:09:46.261Z,15.52
2022-08-30T02:14:45.507Z,15.52
2022-08-30T02:19:46.800Z,15.68
2022-08-30T02:24:48.135Z,15.68
2022-08-30T02:29:49.353Z,15.68
2022-08-30T02:34:50.616Z,15.68
2022-08-30T02:39:50.537Z,15.68
2022-08-30T02:44:52.771Z,15.68
2022-08-30T02:49:52.007Z,15.52
2022-08-30T02:54:53.286Z,15.52
2022-08-30T02:59:54.558Z,15.36
2022-08-30T03:04:56.334Z,15.20
2022-08-30T03:09:55.525Z,15.36
2022-08-30T03:14:56.784Z,15.20
2022-08-30T03:19:58.037Z,15.03
2022-08-30T03:24:59.270Z,15.20
2022-08-30T03:30:00.467Z,15.36
2022-08-30T03:35:01.727Z,15.36
2022-08-30T03:40:02.989Z,15.36
2022-08-30T03:45:04.140Z,15.36
2022-08-30T03:50:05.730Z,15.52
2022-08-30T03:55:04.959Z,15.52
2022-08-30T04:00:06.214Z,14.69
2022-08-30T04:05:07.469Z,14.69
2022-08-30T04:10:08.708Z,14.69
2022-08-30T04:15:10.029Z,14.69
2022-08-30T04:20:11.278Z,14.69
2022-08-30T04:25:15.440Z,14.84
2022-08-30T04:30:13.379Z,14.84
2022-08-30T04:35:15.878Z,14.84
2022-08-30T04:40:15.173Z,14.84
2022-08-30T04:45:16.395Z,14.84
2022-08-30T04:50:17.656Z,14.84
2022-08-30T04:55:20.394Z,14.84
2022-08-30T05:00:19.744Z,14.84
2022-08-30T05:05:20.913Z,14.84
2022-08-30T05:10:22.177Z,14.84
2022-08-30T05:15:23.325Z,15.68
2022-08-30T05:20:24.580Z,15.68
2022-08-30T05:25:25.848Z,15.68
2022-08-30T05:30:27.021Z,15.68
2022-08-30T05:35:29.344Z,15.52
2022-08-30T05:40:29.203Z,15.36
2022-08-30T05:45:28.575Z,16.19
2022-08-30T05:50:29.784Z,16.03
2022-08-30T05:55:31.044Z,16.03
2022-08-30T06:00:32.260Z,16.03
2022-08-30T06:05:35.393Z,15.69
2022-08-30T06:10:34.630Z,16.16
2022-08-30T06:15:37.058Z,15.98
2022-08-30T06:20:37.289Z,15.98
2022-08-30T06:25:41.039Z,16.97
2022-08-30T06:30:36.565Z,16.79
2022-08-30T06:35:42.330Z,16.60
2022-08-30T06:40:37.904Z,16.23
2022-08-30T06:45:39.088Z,17.02
2022-08-30T06:50:40.332Z,17.02
2022-08-30T06:55:46.421Z,17.02
2022-08-30T07:00:41.642Z,16.64
2022-08-30T07:05:55.659Z,16.83
2022-08-30T07:10:42.832Z,17.42
2022-08-30T07:15:44.047Z,17.42
2022-08-30T07:20:45.249Z,17.42
2022-08-30T07:25:46.393Z,17.42
2022-08-30T07:30:48.462Z,17.02
2022-08-30T07:35:47.671Z,17.02
2022-08-30T07:40:48.878Z,17.78
2022-08-30T07:45:50.187Z,17.57
2022-08-30T07:50:54.892Z,18.54
2022-08-30T07:55:51.510Z,17.57
2022-08-30T08:00:52.725Z,16.93
2022-08-30T08:05:53.833Z,16.72
2022-08-30T08:10:56.056Z,16.72
2022-08-30T08:15:55.273Z,16.72
2022-08-30T08:20:57.433Z,16.72
2022-08-30T08:25:57.542Z,18.11
2022-08-30T08:30:56.747Z,17.46
2022-08-30T08:35:57.988Z,17.46
2022-08-30T08:41:00.234Z,17.46
2022-08-30T08:45:59.466Z,17.68
2022-08-30T08:51:02.517Z,17.23
2022-08-30T08:55:59.951Z,17.73
2022-08-30T09:01:01.096Z,17.25
2022-08-30T09:06:02.401Z,17.25
2022-08-30T09:11:03.572Z,17.49
2022-08-30T09:16:04.753Z,17.73
2022-08-30T09:21:05.848Z,17.71
2022-08-30T09:26:08.240Z,17.96
2022-08-30T09:31:11.881Z,17.46
2022-08-30T09:36:07.394Z,17.71
2022-08-30T09:41:08.533Z,17.46
2022-08-30T09:46:10.749Z,17.21
2022-08-30T09:51:11.833Z,17.71
2022-08-30T09:56:11.073Z,16.43
2022-08-30T10:01:12.378Z,16.95
2022-08-30T10:06:13.461Z,18.15
2022-08-30T10:11:14.615Z,17.63
2022-08-30T10:16:15.964Z,17.63
2022-08-30T10:21:19.305Z,17.63
2022-08-30T10:26:19.298Z,17.89
2022-08-30T10:31:16.795Z,17.63
2022-08-30T10:36:18.305Z,18.84
2022-08-30T10:41:19.417Z,18.03
2022-08-30T10:46:20.588Z,17.75
2022-08-30T10:51:22.771Z,17.47
2022-08-30T10:56:22.177Z,18.96
2022-08-30T11:06:24.212Z,18.30
2022-08-30T11:11:25.463Z,18.84
2022-08-30T11:16:26.853Z,18.30
2022-08-30T11:21:28.092Z,19.10
2022-08-30T11:26:29.327Z,19.61
2022-08-30T11:31:29.558Z,19.35
2022-08-30T11:36:27.767Z,19.35
2022-08-30T11:41:30.141Z,19.10
2022-08-30T11:46:31.316Z,19.35
2022-08-30T11:51:32.464Z,19.35
2022-08-30T11:56:32.129Z,19.10
2022-08-30T12:01:42.315Z,19.35
2022-08-30T12:06:33.147Z,19.78
2022-08-30T12:11:35.226Z,19.10
2022-08-30T12:16:34.361Z,20.30
2022-08-30T12:21:43.987Z,19.61
2022-08-30T12:26:34.790Z,20.30
2022-08-30T12:31:35.190Z,19.61
2022-08-30T12:36:36.258Z,20.55
2022-08-30T12:41:43.522Z,20.55
2022-08-30T12:46:37.380Z,20.30
2022-08-30T12:51:38.493Z,20.04
2022-08-30T12:56:50.071Z,20.30
2022-08-30T13:01:39.200Z,20.04
2022-08-30T13:06:38.383Z,20.30
2022-08-30T13:11:40.550Z,19.78
2022-08-30T13:16:45.105Z,20.30
2022-08-30T13:21:39.797Z,20.30
2022-08-30T13:26:40.976Z,19.78
2022-08-30T13:31:42.216Z,20.04
2022-08-30T13:36:44.745Z,20.30
2022-08-30T13:41:44.033Z,20.30
2022-08-30T13:46:48.556Z,20.55
2022-08-30T13:52:03.449Z,20.30
2022-08-30T13:56:46.207Z,20.04
2022-08-30T14:11:45.552Z,19.90
2022-08-30T14:16:48.713Z,18.96
2022-08-30T14:21:48.997Z,19.51
2022-08-30T14:26:46.416Z,19.90
2022-08-30T14:31:46.939Z,20.45
2022-08-30T14:36:46.272Z,20.30
2022-08-30T14:41:47.587Z,20.55
2022-08-30T14:46:48.758Z,19.51
2022-08-30T14:51:48.473Z,20.04
2022-08-30T14:56:47.601Z,20.18
2022-08-30T15:01:50.708Z,17.53
2022-08-30T15:06:51.838Z,17.82
2022-08-30T15:11:53.106Z,18.12
2022-08-30T15:16:54.033Z,18.75
2022-08-30T15:21:55.247Z,18.12
2022-08-30T15:26:56.486Z,17.53
2022-08-30T15:31:58.677Z,17.82
2022-08-30T15:36:57.789Z,18.12
2022-08-30T15:42:01.081Z,18.12
2022-08-30T15:46:59.776Z,17.82
2022-08-30T15:51:58.990Z,19.04
2022-08-30T15:57:00.221Z,18.75
2022-08-30T16:02:00.508Z,18.75
2022-08-30T16:07:02.666Z,19.04
2022-08-30T16:12:02.170Z,18.75
2022-08-30T16:17:02.685Z,19.04
2022-08-30T16:22:01.779Z,18.40
2022-08-30T16:27:03.950Z,18.03
2022-08-30T16:32:03.092Z,18.30
2022-08-30T16:37:04.250Z,18.30
2022-08-30T16:42:04.444Z,18.30
2022-08-30T16:47:11.416Z,18.30
2022-08-30T16:52:07.795Z,18.30
2022-08-30T16:57:07.175Z,19.35
2022-08-30T17:02:08.315Z,20.35
2022-08-30T17:07:13.705Z,19.87
2022-08-30T17:12:10.321Z,19.87
2022-08-30T17:17:09.469Z,19.15
2022-08-30T17:22:11.571Z,19.63
2022-08-30T17:27:10.726Z,20.10
2022-08-30T17:32:11.841Z,19.63
2022-08-30T17:37:11.830Z,18.44
2022-08-30T17:42:12.906Z,18.68
2022-08-30T17:47:16.022Z,19.15
2022-08-30T17:52:16.186Z,18.91
2022-08-30T17:57:15.886Z,19.37
2022-08-30T18:02:16.427Z,17.49
2022-08-30T18:07:16.374Z,17.25
2022-08-30T18:12:19.763Z,18.20
2022-08-30T18:17:19.857Z,18.91
2022-08-30T18:22:19.569Z,17.96
2022-08-30T18:27:19.684Z,18.64
2022-08-30T18:32:19.810Z,17.73
2022-08-30T18:37:21.220Z,17.49
2022-08-30T18:42:22.368Z,17.25
2022-08-30T18:47:23.112Z,17.25
2022-08-30T18:52:22.484Z,17.01
2022-08-30T18:57:22.175Z,17.25
2022-08-30T19:02:27.508Z,17.49
2022-08-30T19:07:28.983Z,16.77
2022-08-30T19:12:23.475Z,16.77
2022-08-30T19:17:28.832Z,16.52
2022-08-30T19:22:26.751Z,16.27
2022-08-30T19:27:37.374Z,16.52
2022-08-30T19:32:26.011Z,16.77
2022-08-30T19:37:27.476Z,17.01
2022-08-30T19:42:26.708Z,17.01
2022-08-30T19:47:27.979Z,17.01
2022-08-30T19:52:29.167Z,17.01
2022-08-30T19:57:30.368Z,17.01
2022-08-30T20:02:32.505Z,16.06
2022-08-30T20:07:32.649Z,16.06
2022-08-30T20:12:33.471Z,16.30
2022-08-30T20:18:01.869Z,16.30
2022-08-30T20:22:34.481Z,15.82
2022-08-30T20:27:35.641Z,16.06
2022-08-30T20:32:36.818Z,15.82
2022-08-30T20:37:37.982Z,15.82
2022-08-30T20:42:39.083Z,15.82
2022-08-30T20:47:40.247Z,15.82
2022-08-30T20:52:41.424Z,15.82
2022-08-30T20:57:42.512Z,15.57
2022-08-30T21:02:46.966Z,15.33
2022-08-30T21:07:45.260Z,15.33
2022-08-30T21:12:46.356Z,15.57
2022-08-30T21:17:44.692Z,15.82
2022-08-30T21:22:46.051Z,15.57
2022-08-30T21:27:48.227Z,14.87
2022-08-30T21:32:47.329Z,14.87
2022-08-30T21:37:48.538Z,15.12
2022-08-30T21:42:49.762Z,15.12
2022-08-30T21:47:51.012Z,14.87
2022-08-30T21:52:52.193Z,15.12
2022-08-30T21:57:54.531Z,15.12
2022-08-30T22:02:53.694Z,14.63
2022-08-30T22:07:54.934Z,14.63
2022-08-30T22:12:56.327Z,14.63
2022-08-30T22:17:55.657Z,15.35
2022-08-30T22:22:57.182Z,14.64
2022-08-30T22:27:56.415Z,15.09
2022-08-30T22:32:57.773Z,15.32
2022-08-30T22:37:58.939Z,15.32
2022-08-30T22:43:00.099Z,15.54
2022-08-30T22:48:01.397Z,15.54
2022-08-30T22:53:03.471Z,15.54
2022-08-30T22:58:02.619Z,15.97
2022-08-30T23:03:03.846Z,16.61
2022-08-30T23:08:04.968Z,16.81
2022-08-30T23:13:06.141Z,16.61
2022-08-30T23:18:07.297Z,16.61
2022-08-30T23:23:09.670Z,16.40
2022-08-30T23:28:08.881Z,15.97
2022-08-30T23:33:10.189Z,15.97
2022-08-30T23:38:11.328Z,16.40
2022-08-30T23:43:12.509Z,16.19
2022-08-30T23:48:13.737Z,16.40
2022-08-30T23:53:14.871Z,16.61
2022-08-30T23:58:16.009Z,16.81
